Time;durP1;ratioP1;P1;durP2;ratioP2;P2;SDS_P1;SDS_P2;PMS_P1;PMS_P2;Temp;Humidity;BMP_temperature;BMP_pressure;BME280_temperature;BME280_humidity;BME280_pressure;Samples;Min_cycle;Max_cycle;Signal;HPM_P1;HPM_P2
2023/12/06 00:00:21;;;;;;;16.63;9.20;;;2.60;99.90;1.70;99918.00;;;;4951588;28;109130;-71
2023/12/06 00:02:47;;;;;;;20.00;11.17;;;2.00;99.90;1.70;99928.00;;;;4945661;28;102811;-71
2023/12/06 00:05:12;;;;;;;10.80;8.97;;;2.00;99.90;1.70;99934.00;;;;4945526;28;92921;-71
2023/12/06 00:07:39;;;;;;;16.97;9.63;;;2.00;99.90;1.70;99926.00;;;;4953377;28;91883;-72
2023/12/06 00:10:05;;;;;;;23.93;10.57;;;2.10;99.90;1.80;99934.00;;;;4951328;28;108240;-72
2023/12/06 00:12:31;;;;;;;19.43;11.43;;;2.00;99.90;1.80;99934.00;;;;4949480;28;109692;-72
2023/12/06 00:14:56;;;;;;;16.47;11.20;;;2.10;99.90;1.80;99933.00;;;;4954263;28;122515;-72
2023/12/06 00:17:22;;;;;;;15.67;10.70;;;2.10;99.90;1.80;99929.00;;;;4948778;28;98010;-72
2023/12/06 00:19:48;;;;;;;14.50;9.00;;;2.10;99.90;1.80;99919.00;;;;4946746;28;108959;-72
2023/12/06 00:22:13;;;;;;;22.67;12.33;;;2.80;99.90;1.80;99929.00;;;;4949499;28;123452;-72
2023/12/06 00:24:39;;;;;;;25.50;11.30;;;2.10;99.90;1.80;99920.00;;;;4944656;28;122922;-70
2023/12/06 00:27:05;;;;;;;14.63;10.87;;;2.10;99.90;1.90;99934.00;;;;4947591;28;113608;-70
2023/12/06 00:29:30;;;;;;;16.00;10.40;;;2.20;99.90;1.90;99928.00;;;;4950959;28;99457;-70
2023/12/06 00:31:56;;;;;;;19.00;11.20;;;2.10;99.90;1.90;99940.00;;;;4953423;28;119429;-72
2023/12/06 00:34:22;;;;;;;16.67;11.00;;;2.10;99.90;1.90;99939.00;;;;4944488;28;120463;-71
2023/12/06 00:36:48;;;;;;;16.97;8.83;;;2.10;99.90;1.90;99926.00;;;;4943633;28;103786;-71
2023/12/06 00:39:14;;;;;;;14.53;10.37;;;2.20;99.90;1.90;99944.00;;;;4938654;28;94175;-71
2023/12/06 00:41:43;;;;;;;21.20;10.80;;;2.20;99.90;2.00;99935.00;;;;4942098;28;109141;-71
2023/12/06 00:44:08;;;;;;;19.77;10.87;;;2.30;99.90;2.00;99949.00;;;;4946403;28;122287;-70
2023/12/06 00:46:35;;;;;;;18.43;12.40;;;2.20;99.90;2.00;99940.00;;;;4944291;28;112257;-73
2023/12/06 00:49:03;;;;;;;20.83;12.17;;;2.20;99.90;2.00;99941.00;;;;4950051;28;92908;-71
2023/12/06 00:51:31;;;;;;;21.80;12.20;;;2.30;99.90;2.00;99940.00;;;;4944443;28;93286;-71
2023/12/06 00:53:57;;;;;;;20.83;12.33;;;2.40;99.90;2.00;99932.00;;;;4947748;28;94907;-71
2023/12/06 00:56:23;;;;;;;22.23;11.57;;;2.20;99.90;2.00;99937.00;;;;4949908;28;98411;-70
2023/12/06 00:58:49;;;;;;;13.40;11.07;;;2.20;99.90;2.00;99946.00;;;;4951006;28;93083;-72
2023/12/06 01:01:14;;;;;;;19.00;12.00;;;2.20;99.90;1.90;99940.00;;;;4948741;28;122393;-70
2023/12/06 01:03:41;;;;;;;14.50;9.80;;;2.10;99.90;2.00;99945.00;;;;4949210;28;94031;-71
2023/12/06 01:06:08;;;;;;;18.00;11.03;;;2.30;99.90;1.90;99941.00;;;;4952374;28;113321;-71
2023/12/06 01:08:33;;;;;;;15.40;9.47;;;2.20;99.90;2.00;99945.00;;;;4941288;28;93711;-71
2023/12/06 01:10:59;;;;;;;14.87;10.50;;;2.30;99.90;2.00;99942.00;;;;4944255;28;121572;-71
2023/12/06 01:13:25;;;;;;;19.80;12.23;;;2.10;99.90;2.00;99938.00;;;;4950791;28;122197;-70
2023/12/06 01:15:50;;;;;;;19.17;11.27;;;2.20;99.90;2.00;99938.00;;;;4951040;28;93202;-71
2023/12/06 01:18:16;;;;;;;16.40;10.73;;;2.30;99.90;2.00;99941.00;;;;4957018;28;94553;-71
2023/12/06 01:20:42;;;;;;;18.57;11.47;;;2.30;99.90;2.00;99935.00;;;;4945686;28;92364;-71
2023/12/06 01:23:08;;;;;;;15.10;11.50;;;2.20;99.90;2.00;99942.00;;;;4953362;28;120161;-71
2023/12/06 01:25:33;;;;;;;18.03;9.37;;;2.20;99.90;2.00;99944.00;;;;4958289;28;93018;-72
2023/12/06 01:28:00;;;;;;;18.80;11.93;;;2.20;99.90;2.00;99952.00;;;;4952497;28;109386;-73
2023/12/06 01:30:26;;;;;;;15.67;11.00;;;2.30;99.90;2.00;99943.00;;;;4949329;28;93014;-72
2023/12/06 01:32:51;;;;;;;19.63;11.63;;;2.10;99.90;2.00;99933.00;;;;4948886;28;92788;-71
2023/12/06 01:35:26;;;;;;;16.23;10.67;;;2.20;99.90;1.90;99941.00;;;;4946094;28;112955;-70
2023/12/06 01:37:52;;;;;;;17.90;10.73;;;2.20;99.90;2.00;99940.00;;;;4952669;28;102550;-73
2023/12/06 01:40:18;;;;;;;23.17;12.33;;;2.20;99.90;2.00;99937.00;;;;4949820;28;94174;-70
2023/12/06 01:42:46;;;;;;;22.03;12.50;;;2.20;99.90;2.00;99940.00;;;;4953257;28;93878;-70
2023/12/06 01:45:14;;;;;;;21.13;10.27;;;2.20;99.90;2.00;99957.00;;;;4947956;28;112150;-70
2023/12/06 01:47:41;;;;;;;17.07;9.77;;;2.20;99.90;2.00;99963.00;;;;4949236;28;94914;-70
2023/12/06 01:50:08;;;;;;;23.47;12.87;;;2.20;99.90;2.00;99955.00;;;;4952401;28;93753;-72
2023/12/06 01:52:35;;;;;;;17.80;10.27;;;2.30;99.90;2.00;99949.00;;;;4948993;28;94324;-72
2023/12/06 01:55:00;;;;;;;18.23;11.53;;;3.00;99.90;2.00;99953.00;;;;4950876;28;93049;-71
2023/12/06 01:57:28;;;;;;;20.40;12.87;;;2.30;99.90;2.00;99937.00;;;;4947926;28;100419;-71
2023/12/06 01:59:56;;;;;;;21.73;12.60;;;2.30;99.90;2.00;99942.00;;;;4950463;28;93517;-72
2023/12/06 02:02:22;;;;;;;18.40;11.17;;;2.30;99.90;2.00;99943.00;;;;4953803;28;93890;-70
2023/12/06 02:04:48;;;;;;;15.10;10.67;;;2.30;99.90;2.00;99945.00;;;;4949480;28;113074;-70
2023/12/06 02:07:15;;;;;;;14.83;11.30;;;2.30;99.90;2.00;99946.00;;;;4945529;28;110258;-72
2023/12/06 02:09:41;;;;;;;21.97;11.60;;;2.20;99.90;2.00;99939.00;;;;4953485;28;93105;-71
2023/12/06 02:12:07;;;;;;;18.23;11.50;;;2.20;99.90;2.00;99942.00;;;;4950839;28;113516;-71
2023/12/06 02:14:35;;;;;;;17.50;12.37;;;2.30;99.90;2.00;99931.00;;;;4941058;28;113698;-69
2023/12/06 02:17:03;;;;;;;21.57;11.53;;;2.30;99.90;2.00;99941.00;;;;4946828;28;93828;-69
2023/12/06 02:19:29;;;;;;;19.13;12.17;;;2.30;99.90;1.90;99923.00;;;;4946944;28;115029;-71
2023/12/06 02:21:56;;;;;;;19.87;12.40;;;2.20;99.90;1.90;99933.00;;;;4948793;28;93564;-71
2023/12/06 02:24:25;;;;;;;27.40;12.80;;;2.30;99.90;1.90;99927.00;;;;4954682;28;113189;-71
2023/12/06 02:26:52;;;;;;;18.57;12.37;;;1.90;99.90;1.90;99928.00;;;;4952624;28;94905;-72
2023/12/06 02:29:19;;;;;;;25.10;12.70;;;2.10;99.90;1.90;99925.00;;;;4949055;28;93161;-70
2023/12/06 02:31:44;;;;;;;19.70;12.37;;;2.20;99.90;1.90;99929.00;;;;4946829;28;120770;-69
2023/12/06 02:34:15;;;;;;;16.33;11.83;;;2.10;99.90;1.80;99924.00;;;;4952009;28;112138;-68
2023/12/06 02:36:47;;;;;;;16.43;10.00;;;2.10;99.90;1.80;99922.00;;;;4953451;28;93323;-68
2023/12/06 02:39:13;;;;;;;17.77;11.20;;;2.20;99.90;1.80;99930.00;;;;4951154;28;94379;-68
2023/12/06 02:41:38;;;;;;;23.50;13.33;;;2.00;99.90;1.80;99930.00;;;;4955160;28;93832;-68
2023/12/06 02:44:04;;;;;;;19.40;12.53;;;2.00;99.90;1.80;99929.00;;;;4946272;28;113187;-68
2023/12/06 02:46:30;;;;;;;14.53;11.63;;;3.10;99.90;1.80;99925.00;;;;4949717;28;109112;-68
2023/12/06 02:48:56;;;;;;;23.10;13.03;;;2.00;99.90;1.80;99920.00;;;;4946938;28;122971;-69
2023/12/06 02:51:23;;;;;;;14.50;10.53;;;2.10;99.90;1.70;99918.00;;;;4945691;28;93145;-69
2023/12/06 02:53:49;;;;;;;20.90;11.63;;;2.00;99.90;1.70;99904.00;;;;4946252;28;92984;-69
2023/12/06 02:56:15;;;;;;;22.97;12.10;;;2.00;99.90;1.70;99927.00;;;;4948849;28;93015;-69
2023/12/06 02:58:40;;;;;;;21.90;12.63;;;2.00;99.90;1.70;99916.00;;;;4943572;28;121387;-69
2023/12/06 03:01:06;;;;;;;25.80;12.20;;;1.90;99.90;1.60;99906.00;;;;4950848;28;121003;-71
2023/12/06 03:03:32;;;;;;;18.93;11.23;;;1.90;99.90;1.60;99908.00;;;;4954726;28;113290;-70
2023/12/06 03:05:58;;;;;;;19.13;12.00;;;1.90;99.90;1.60;99911.00;;;;4948821;28;110306;-69
2023/12/06 03:08:23;;;;;;;28.70;12.30;;;1.90;99.90;1.60;99909.00;;;;4942756;28;121321;-69
2023/12/06 03:10:49;;;;;;;23.13;12.47;;;1.90;99.90;1.60;99910.00;;;;4948606;28;122816;-71
2023/12/06 03:13:15;;;;;;;21.57;12.60;;;1.90;99.90;1.60;99899.00;;;;4949931;28;112985;-69
2023/12/06 03:15:40;;;;;;;17.50;11.53;;;1.90;99.90;1.60;99913.00;;;;4949960;28;108457;-70
2023/12/06 03:18:06;;;;;;;27.50;12.83;;;1.90;99.90;1.60;99897.00;;;;4946127;28;120335;-70
2023/12/06 03:20:33;;;;;;;22.47;11.97;;;1.90;99.90;1.60;99908.00;;;;4950220;28;123073;-72
2023/12/06 03:22:59;;;;;;;17.37;11.37;;;1.80;99.90;1.60;99903.00;;;;4945740;28;92100;-72
2023/12/06 03:25:25;;;;;;;19.67;10.90;;;1.80;99.90;1.60;99909.00;;;;4943481;28;99746;-72
2023/12/06 03:27:50;;;;;;;18.30;11.90;;;1.80;99.90;1.60;99900.00;;;;4947584;28;122878;-71
2023/12/06 03:30:16;;;;;;;20.33;12.00;;;1.80;99.90;1.60;99905.00;;;;4947832;28;120697;-72
2023/12/06 03:32:43;;;;;;;17.33;11.63;;;1.80;99.90;1.50;99909.00;;;;4951007;28;113786;-72
2023/12/06 03:35:09;;;;;;;20.00;13.27;;;1.80;99.90;1.50;99905.00;;;;4950152;28;93908;-72
2023/12/06 03:37:34;;;;;;;17.67;10.87;;;1.80;99.90;1.60;99906.00;;;;4947211;28;122028;-72
2023/12/06 03:40:00;;;;;;;23.87;12.90;;;1.90;99.90;1.50;99903.00;;;;4949782;28;121452;-72
2023/12/06 03:42:26;;;;;;;24.93;13.50;;;1.90;99.90;1.50;99915.00;;;;4949492;28;113157;-72
2023/12/06 03:44:51;;;;;;;18.00;11.07;;;2.30;99.90;1.50;99908.00;;;;4952331;28;93299;-72
2023/12/06 03:47:17;;;;;;;18.53;11.47;;;1.80;99.90;1.50;99911.00;;;;4946191;28;113877;-71
2023/12/06 03:49:43;;;;;;;24.10;11.10;;;1.80;99.90;1.60;99909.00;;;;4947379;28;122668;-71
2023/12/06 03:52:09;;;;;;;20.00;12.90;;;1.70;99.90;1.60;99911.00;;;;4949861;28;103044;-70
2023/12/06 03:54:35;;;;;;;19.63;11.90;;;1.80;99.90;1.60;99904.00;;;;4948257;28;93982;-70
2023/12/06 03:57:01;;;;;;;20.13;12.30;;;1.80;99.90;1.60;99905.00;;;;4950743;28;115558;-70
2023/12/06 03:59:26;;;;;;;24.03;11.00;;;2.00;99.90;1.60;99910.00;;;;4953048;28;122085;-70
2023/12/06 04:01:52;;;;;;;15.30;11.27;;;1.80;99.90;1.60;99909.00;;;;4944840;28;106616;-70
2023/12/06 04:04:18;;;;;;;15.23;10.23;;;1.90;99.90;1.60;99911.00;;;;4950553;28;93212;-70
2023/12/06 04:06:43;;;;;;;19.10;12.07;;;1.90;99.90;1.60;99911.00;;;;4947610;28;121465;-69
2023/12/06 04:09:10;;;;;;;19.90;11.30;;;1.90;99.90;1.60;99907.00;;;;4943862;28;121242;-72
2023/12/06 04:11:37;;;;;;;21.27;11.27;;;1.80;99.90;1.60;99914.00;;;;4952778;28;92507;-72
2023/12/06 04:14:03;;;;;;;24.20;12.73;;;1.80;99.90;1.60;99906.00;;;;4950846;28;98806;-70
2023/12/06 04:16:29;;;;;;;18.33;11.57;;;1.90;99.90;1.60;99909.00;;;;4948003;28;94726;-70
2023/12/06 04:18:55;;;;;;;27.47;11.50;;;1.90;99.90;1.60;99902.00;;;;4953185;28;113421;-70
2023/12/06 04:21:21;;;;;;;22.10;12.67;;;1.80;99.90;1.50;99910.00;;;;4952388;28;111441;-69
2023/12/06 04:23:48;;;;;;;21.13;11.77;;;1.80;99.90;1.50;99914.00;;;;4951847;28;101279;-72
2023/12/06 04:26:14;;;;;;;23.40;11.70;;;1.90;99.90;1.50;99910.00;;;;4953268;28;93012;-72
2023/12/06 04:28:39;;;;;;;18.77;11.87;;;2.30;99.90;1.50;99922.00;;;;4957395;28;112446;-72
2023/12/06 04:31:06;;;;;;;15.20;10.30;;;1.80;99.90;1.40;99918.00;;;;4945567;28;113257;-72
2023/12/06 04:33:32;;;;;;;18.03;9.87;;;1.80;99.90;1.40;99918.00;;;;4949762;28;94806;-72
2023/12/06 04:35:57;;;;;;;15.77;11.27;;;1.70;99.90;1.40;99913.00;;;;4943182;28;121496;-72
2023/12/06 04:38:23;;;;;;;16.23;9.97;;;1.70;99.90;1.30;99922.00;;;;4946872;28;92997;-72
2023/12/06 04:40:49;;;;;;;18.93;11.10;;;1.70;99.90;1.30;99914.00;;;;4948481;28;93475;-72
2023/12/06 04:43:16;;;;;;;20.77;10.57;;;1.60;99.90;1.30;99919.00;;;;4951816;28;107696;-71
2023/12/06 04:45:42;;;;;;;14.70;10.43;;;2.50;99.90;1.30;99917.00;;;;4949496;28;93213;-71
2023/12/06 04:48:08;;;;;;;15.93;10.60;;;1.50;99.90;1.20;99928.00;;;;4945331;28;106386;-71
2023/12/06 04:50:34;;;;;;;18.63;9.70;;;1.50;99.90;1.20;99931.00;;;;4945696;28;112975;-71
2023/12/06 04:52:59;;;;;;;19.60;11.97;;;1.50;99.90;1.20;99928.00;;;;4957096;28;108310;-71
2023/12/06 04:55:25;;;;;;;20.80;12.10;;;1.60;99.90;1.20;99942.00;;;;4954596;28;123370;-73
2023/12/06 04:57:51;;;;;;;17.97;11.47;;;1.50;99.90;1.10;99946.00;;;;4958374;28;122912;-71
2023/12/06 05:00:17;;;;;;;20.87;11.30;;;1.50;99.90;1.10;99941.00;;;;4954263;28;114115;-71
2023/12/06 05:02:43;;;;;;;22.33;12.93;;;1.50;99.90;1.10;99933.00;;;;4951146;28;92983;-71
2023/12/06 05:05:09;;;;;;;19.03;12.00;;;1.40;99.90;1.10;99929.00;;;;4955164;28;102731;-68
2023/12/06 05:07:35;;;;;;;21.83;13.70;;;1.40;99.90;1.10;99933.00;;;;4956543;28;109400;-68
2023/12/06 05:10:01;;;;;;;17.23;11.90;;;1.40;99.90;1.10;99924.00;;;;4955642;28;112889;-67
2023/12/06 05:12:26;;;;;;;24.40;13.97;;;1.60;99.90;1.10;99929.00;;;;4956414;28;108654;-68
2023/12/06 05:14:52;;;;;;;21.63;13.23;;;1.30;99.90;1.10;99930.00;;;;4954359;28;124034;-72
2023/12/06 05:17:18;;;;;;;23.77;13.17;;;1.40;99.90;1.10;99940.00;;;;4954328;28;120975;-71
2023/12/06 05:19:43;;;;;;;21.13;12.87;;;1.40;99.90;1.10;99937.00;;;;4954409;28;113892;-72
2023/12/06 05:22:09;;;;;;;22.43;12.70;;;1.40;99.90;1.10;99929.00;;;;4953202;28;109211;-72
2023/12/06 05:24:34;;;;;;;20.63;13.07;;;1.30;99.90;1.10;99946.00;;;;4951969;28;122981;-70
2023/12/06 05:27:00;;;;;;;19.23;11.20;;;1.40;99.90;1.10;99929.00;;;;4953194;28;117595;-68
2023/12/06 05:29:26;;;;;;;26.50;18.70;;;1.30;99.90;1.00;99937.00;;;;4956517;28;93015;-71
2023/12/06 05:31:51;;;;;;;28.77;16.67;;;1.30;99.90;1.10;99930.00;;;;4959234;28;108176;-68
2023/12/06 05:34:19;;;;;;;23.97;13.70;;;1.40;99.90;1.00;99940.00;;;;4953279;28;93740;-69
2023/12/06 05:36:44;;;;;;;21.80;13.70;;;1.30;99.90;1.00;99929.00;;;;4956051;28;93439;-68
2023/12/06 05:39:10;;;;;;;15.57;10.20;;;1.30;99.90;1.00;99930.00;;;;4950531;28;111821;-68
2023/12/06 05:41:36;;;;;;;22.87;13.77;;;0.50;99.90;1.00;99937.00;;;;4956730;28;108204;-68
2023/12/06 05:44:05;;;;;;;20.20;11.70;;;1.20;99.90;1.00;99943.00;;;;4954739;28;93283;-68
2023/12/06 05:46:31;;;;;;;20.13;11.10;;;1.20;99.90;1.00;99940.00;;;;4955351;28;93774;-68
2023/12/06 05:48:56;;;;;;;22.53;13.10;;;1.30;99.90;1.00;99942.00;;;;4953182;28;92082;-68
2023/12/06 05:51:22;;;;;;;14.90;11.63;;;1.30;99.90;1.00;99953.00;;;;4958124;28;92879;-71
2023/12/06 05:53:49;;;;;;;21.53;12.10;;;1.30;99.90;1.00;99950.00;;;;4952425;28;122719;-70
2023/12/06 05:56:14;;;;;;;20.63;11.10;;;1.30;99.90;1.00;99944.00;;;;4958227;28;95289;-71
2023/12/06 05:58:41;;;;;;;21.37;11.63;;;1.50;99.90;1.00;99949.00;;;;4955236;28;111179;-71
2023/12/06 06:01:07;;;;;;;21.40;12.77;;;1.20;99.90;1.00;99947.00;;;;4955574;28;92900;-69
2023/12/06 06:03:34;;;;;;;22.00;14.10;;;1.30;99.90;1.00;99954.00;;;;4951470;28;93190;-70
2023/12/06 06:06:06;;;;;;;23.03;12.10;;;1.30;99.90;1.00;99954.00;;;;4953440;28;93909;-71
2023/12/06 06:08:32;;;;;;;20.90;12.83;;;1.30;99.90;1.00;99949.00;;;;4952780;28;93403;-71
2023/12/06 06:10:58;;;;;;;20.17;12.60;;;1.40;99.90;1.00;99949.00;;;;4951361;28;93497;-71
2023/12/06 06:13:28;;;;;;;21.43;11.93;;;1.00;99.90;1.00;99946.00;;;;4948708;28;95018;-71
2023/12/06 06:15:54;;;;;;;25.10;11.90;;;1.30;99.90;1.10;99945.00;;;;4947478;28;93777;-71
2023/12/06 06:18:21;;;;;;;22.70;13.73;;;1.30;99.90;1.10;99948.00;;;;4949688;28;105380;-72
2023/12/06 06:20:46;;;;;;;25.70;12.40;;;1.30;99.90;1.10;99955.00;;;;4947645;28;93959;-70
2023/12/06 06:23:12;;;;;;;22.37;12.30;;;1.40;99.90;1.10;99950.00;;;;4942648;28;107189;-70
2023/12/06 06:25:38;;;;;;;20.80;11.97;;;1.40;99.90;1.10;99946.00;;;;4949438;28;109349;-70
2023/12/06 06:28:04;;;;;;;22.20;12.83;;;1.40;99.90;1.10;99950.00;;;;4946809;28;94463;-69
2023/12/06 06:30:30;;;;;;;26.80;13.93;;;1.40;99.90;1.10;99944.00;;;;4951265;28;102554;-69
2023/12/06 06:32:56;;;;;;;22.53;13.07;;;1.50;99.90;1.10;99946.00;;;;4952677;28;124975;-70
2023/12/06 06:35:22;;;;;;;18.03;12.70;;;1.40;99.90;1.10;99939.00;;;;4949015;28;93165;-70
2023/12/06 06:37:48;;;;;;;21.83;11.67;;;1.40;99.90;1.20;99945.00;;;;4949263;28;92187;-70
2023/12/06 06:40:14;;;;;;;20.67;12.17;;;0.90;99.90;1.10;99947.00;;;;4946661;28;92936;-70
2023/12/06 06:42:41;;;;;;;17.70;12.53;;;1.60;99.90;1.20;99940.00;;;;4952731;28;103147;-69
2023/12/06 06:45:08;;;;;;;18.57;12.03;;;1.50;99.90;1.20;99949.00;;;;4952476;28;93845;-69
2023/12/06 06:47:37;;;;;;;21.07;11.67;;;1.50;99.90;1.20;99946.00;;;;4953605;28;94271;-69
2023/12/06 06:50:04;;;;;;;20.47;11.50;;;1.50;99.90;1.20;99960.00;;;;4948285;28;108830;-72
2023/12/06 06:52:36;;;;;;;30.10;14.30;;;1.40;99.90;1.20;99966.00;;;;4950527;28;94041;-72
2023/12/06 06:55:02;;;;;;;20.23;11.87;;;1.50;99.90;1.20;99964.00;;;;4955521;28;93251;-69
2023/12/06 06:57:28;;;;;;;18.07;12.67;;;1.60;99.90;1.20;99968.00;;;;4939400;28;95163;-71
2023/12/06 06:59:53;;;;;;;21.83;13.57;;;1.60;99.90;1.30;99974.00;;;;4949441;28;107016;-70
2023/12/06 07:02:19;;;;;;;18.23;12.27;;;2.00;99.90;1.30;99972.00;;;;4949782;28;121985;-70
2023/12/06 07:04:45;;;;;;;18.43;12.13;;;1.50;99.90;1.30;99987.00;;;;4954750;28;93193;-71
2023/12/06 07:07:11;;;;;;;18.50;12.53;;;1.50;99.90;1.30;99968.00;;;;4954578;28;92800;-71
2023/12/06 07:09:37;;;;;;;21.23;12.03;;;1.60;99.90;1.30;99969.00;;;;4952010;28;97479;-70
2023/12/06 07:12:03;;;;;;;17.30;12.77;;;1.50;99.90;1.30;99973.00;;;;4946217;28;92990;-70
2023/12/06 07:14:29;;;;;;;21.13;11.97;;;1.60;99.90;1.40;99983.00;;;;4949305;28;93027;-70
2023/12/06 07:16:56;;;;;;;26.57;13.57;;;2.10;99.90;1.40;99983.00;;;;4965578;28;104106;-70
2023/12/06 07:19:22;;;;;;;18.53;11.53;;;1.70;99.90;1.40;99981.00;;;;4952747;28;93017;-70
2023/12/06 07:21:48;;;;;;;16.97;12.13;;;1.70;99.90;1.40;99989.00;;;;4946848;28;123751;-70
2023/12/06 07:24:13;;;;;;;15.60;11.97;;;1.60;99.90;1.40;99993.00;;;;4947768;28;122776;-70
2023/12/06 07:26:39;;;;;;;24.20;12.13;;;1.70;99.90;1.50;99991.00;;;;4950543;28;111949;-70
2023/12/06 07:29:05;;;;;;;19.03;11.27;;;1.70;99.90;1.50;99999.00;;;;4949536;28;93113;-70
2023/12/06 07:31:31;;;;;;;21.37;12.37;;;1.70;99.90;1.50;99994.00;;;;4951617;28;95792;-70
2023/12/06 07:33:57;;;;;;;20.10;10.03;;;1.70;99.90;1.50;100006.00;;;;4948171;28;112194;-70
2023/12/06 07:36:23;;;;;;;25.40;12.53;;;1.80;99.90;1.50;100009.00;;;;4950977;28;102058;-70
2023/12/06 07:38:49;;;;;;;17.57;10.97;;;1.90;99.90;1.60;100002.00;;;;4949093;28;101292;-70
2023/12/06 07:41:15;;;;;;;22.03;12.40;;;1.80;99.90;1.60;100011.00;;;;4952682;28;93711;-72
2023/12/06 07:43:40;;;;;;;23.33;12.00;;;1.80;99.90;1.60;99999.00;;;;4951515;28;110812;-72
2023/12/06 07:46:06;;;;;;;20.13;12.83;;;1.80;99.90;1.60;100011.00;;;;4950713;28;112857;-70
2023/12/06 07:48:33;;;;;;;18.77;10.53;;;1.80;99.90;1.60;100003.00;;;;4948353;28;93000;-72
2023/12/06 07:51:00;;;;;;;21.37;12.57;;;2.00;99.90;1.70;100005.00;;;;4946515;28;93513;-71
2023/12/06 07:53:26;;;;;;;21.30;12.87;;;2.00;99.90;1.70;100006.00;;;;4950303;28;92806;-70
2023/12/06 07:55:55;;;;;;;18.00;11.97;;;2.00;99.90;1.70;100004.00;;;;4949087;28;92864;-70
2023/12/06 07:58:22;;;;;;;16.50;10.87;;;2.00;99.90;1.70;100005.00;;;;4951026;28;94160;-70
2023/12/06 08:00:49;;;;;;;17.80;12.10;;;2.00;99.90;1.80;100013.00;;;;4948286;28;93033;-70
2023/12/06 08:03:14;;;;;;;24.60;11.17;;;2.00;99.90;1.80;100017.00;;;;4948812;28;93161;-71
2023/12/06 08:05:40;;;;;;;20.10;10.47;;;2.10;99.90;1.90;100021.00;;;;4947174;28;103850;-72
2023/12/06 08:08:06;;;;;;;19.37;11.13;;;2.00;99.90;1.90;100022.00;;;;4950285;28;93369;-72
2023/12/06 08:10:33;;;;;;;21.70;12.30;;;2.10;99.90;1.90;100017.00;;;;4950215;28;95178;-71
2023/12/06 08:13:03;;;;;;;21.97;12.30;;;2.20;99.90;1.90;100017.00;;;;4951093;28;94771;-71
2023/12/06 08:15:29;;;;;;;20.57;12.00;;;2.20;99.90;2.00;100018.00;;;;4947081;28;92456;-70
2023/12/06 08:17:56;;;;;;;16.87;10.77;;;2.30;99.90;2.00;100019.00;;;;4949493;28;93348;-70
2023/12/06 08:20:22;;;;;;;15.83;10.37;;;2.30;99.90;2.00;100027.00;;;;4953300;28;94704;-72
2023/12/06 08:22:47;;;;;;;17.60;11.27;;;2.50;99.90;2.10;100022.00;;;;4949399;28;94116;-70
2023/12/06 08:25:13;;;;;;;13.77;10.17;;;2.30;99.90;2.10;100036.00;;;;4951587;28;106635;-71
2023/12/06 08:27:39;;;;;;;16.30;9.47;;;3.00;99.90;2.10;100027.00;;;;4952472;28;93348;-71
2023/12/06 08:30:08;;;;;;;18.43;11.70;;;2.40;99.90;2.10;100028.00;;;;4949526;28;105273;-70
2023/12/06 08:32:34;;;;;;;18.93;12.63;;;2.40;99.90;2.20;100025.00;;;;4950626;28;92924;-70
2023/12/06 08:35:01;;;;;;;21.23;11.67;;;2.80;99.90;2.20;100026.00;;;;4951856;28;111854;-70
2023/12/06 08:37:27;;;;;;;19.87;11.67;;;1.80;99.90;2.20;100016.00;;;;4948539;28;93041;-70
2023/12/06 08:39:52;;;;;;;16.70;10.83;;;2.50;99.90;2.20;100028.00;;;;4952656;28;92355;-70
2023/12/06 08:42:18;;;;;;;18.47;11.57;;;2.50;99.90;2.20;100036.00;;;;4945849;28;93054;-72
2023/12/06 08:44:44;;;;;;;14.70;10.13;;;2.50;99.90;2.30;100033.00;;;;4949315;28;114345;-72
2023/12/06 08:47:10;;;;;;;20.80;11.37;;;2.50;99.90;2.30;100032.00;;;;4947205;28;93783;-70
2023/12/06 08:49:37;;;;;;;18.50;11.37;;;2.50;99.90;2.30;100041.00;;;;4950004;28;105902;-70
2023/12/06 08:52:07;;;;;;;17.07;10.33;;;2.50;99.90;2.30;100041.00;;;;4948752;28;93890;-71
2023/12/06 08:54:34;;;;;;;20.70;11.73;;;2.50;99.90;2.30;100043.00;;;;4951395;28;93024;-71
2023/12/06 08:57:01;;;;;;;14.87;11.40;;;2.50;99.90;2.30;100039.00;;;;4949591;28;97355;-71
2023/12/06 08:59:26;;;;;;;18.53;10.97;;;3.40;99.90;2.40;100045.00;;;;4949941;28;94096;-73
2023/12/06 09:01:52;;;;;;;23.23;11.27;;;2.70;99.90;2.40;100042.00;;;;4953559;28;119606;-70
2023/12/06 09:04:19;;;;;;;14.77;10.60;;;2.60;99.90;2.40;100056.00;;;;4948891;28;113642;-71
2023/12/06 09:06:45;;;;;;;16.47;10.40;;;2.60;99.90;2.40;100060.00;;;;4949865;28;92913;-72
2023/12/06 09:09:11;;;;;;;18.77;10.60;;;2.60;99.90;2.40;100054.00;;;;4953725;28;95033;-70
2023/12/06 09:11:37;;;;;;;16.53;10.60;;;2.70;99.90;2.50;100054.00;;;;4946873;28;94033;-73
2023/12/06 09:14:02;;;;;;;13.67;9.33;;;2.70;99.90;2.50;100052.00;;;;4949473;28;92921;-70
2023/12/06 09:16:28;;;;;;;14.93;11.07;;;2.70;99.90;2.50;100049.00;;;;4945137;28;108244;-72
2023/12/06 09:18:55;;;;;;;17.13;11.03;;;2.70;99.90;2.50;100052.00;;;;4947098;28;121827;-71
2023/12/06 09:21:20;;;;;;;15.83;10.57;;;2.70;99.90;2.50;100048.00;;;;4945267;28;94015;-73
2023/12/06 09:23:47;;;;;;;16.53;11.57;;;2.70;99.90;2.50;100056.00;;;;4950210;28;114522;-71
2023/12/06 09:26:13;;;;;;;15.33;10.50;;;2.70;99.90;2.50;100063.00;;;;4944540;28;93078;-71
2023/12/06 09:28:38;;;;;;;13.70;9.43;;;2.70;99.90;2.50;100057.00;;;;4947384;28;122510;-73
2023/12/06 09:31:05;;;;;;;19.03;10.57;;;2.70;99.90;2.50;100061.00;;;;4947539;28;122349;-71
2023/12/06 09:33:31;;;;;;;21.10;11.83;;;2.70;99.90;2.50;100061.00;;;;4944267;28;93035;-73
2023/12/06 09:35:57;;;;;;;13.73;8.83;;;3.50;99.90;2.60;100060.00;;;;4951448;28;93998;-70
2023/12/06 09:38:22;;;;;;;17.47;10.37;;;2.70;99.90;2.60;100058.00;;;;4955671;28;122423;-73
2023/12/06 09:40:48;;;;;;;18.00;10.00;;;2.70;99.90;2.60;100067.00;;;;4952733;28;93395;-71
2023/12/06 09:43:14;;;;;;;18.60;9.70;;;2.80;99.90;2.60;100054.00;;;;4948647;28;112409;-70
2023/12/06 09:45:40;;;;;;;18.80;11.17;;;2.80;99.90;2.60;100060.00;;;;4955259;28;99165;-71
2023/12/06 09:48:06;;;;;;;16.90;10.97;;;2.90;99.90;2.60;100066.00;;;;4948787;28;123573;-71
2023/12/06 09:50:32;;;;;;;17.07;11.13;;;2.80;99.90;2.60;100062.00;;;;4951433;28;92852;-72
2023/12/06 09:52:57;;;;;;;18.77;11.67;;;2.80;99.90;2.60;100073.00;;;;4949391;28;102359;-70
2023/12/06 09:55:24;;;;;;;17.33;12.07;;;2.80;99.90;2.70;100079.00;;;;4950504;28;109525;-71
2023/12/06 09:57:54;;;;;;;20.37;11.87;;;2.90;99.90;2.70;100076.00;;;;4952484;28;92990;-71
2023/12/06 10:00:21;;;;;;;15.70;10.03;;;2.90;99.90;2.70;100076.00;;;;4952648;28;93897;-71
2023/12/06 10:02:53;;;;;;;19.93;10.93;;;2.90;99.90;2.70;100080.00;;;;4952272;28;104651;-71
2023/12/06 10:05:19;;;;;;;15.63;9.87;;;2.90;99.90;2.70;100069.00;;;;4953182;28;92996;-71
2023/12/06 10:07:46;;;;;;;17.53;12.57;;;2.90;99.90;2.80;100070.00;;;;4953625;28;93623;-72
2023/12/06 10:10:20;;;;;;;16.40;10.73;;;3.00;99.90;2.80;100070.00;;;;4954520;28;93113;-71
2023/12/06 10:12:55;;;;;;;16.83;10.37;;;2.90;99.90;2.80;100077.00;;;;4948055;28;93008;-74
2023/12/06 10:15:22;;;;;;;19.07;11.63;;;3.00;99.90;2.80;100077.00;;;;4951051;28;93087;-72
2023/12/06 10:17:48;;;;;;;15.93;10.57;;;3.00;99.90;2.80;100066.00;;;;4951154;28;92909;-71
2023/12/06 10:20:14;;;;;;;19.33;11.10;;;3.00;99.90;2.80;100066.00;;;;4950907;28;93160;-70
2023/12/06 10:22:41;;;;;;;22.20;12.33;;;3.10;99.90;2.80;100075.00;;;;4950466;28;105528;-72
2023/12/06 10:25:08;;;;;;;19.37;12.00;;;3.00;99.90;2.80;100077.00;;;;4953010;28;93811;-70
2023/12/06 10:27:35;;;;;;;23.43;11.97;;;3.00;99.90;2.70;100068.00;;;;4953395;28;93076;-71
2023/12/06 10:30:05;;;;;;;23.07;11.97;;;3.00;99.90;2.70;100065.00;;;;4953207;28;99065;-70
2023/12/06 10:32:33;;;;;;;15.23;9.97;;;2.90;99.90;2.70;100073.00;;;;4952255;28;93039;-71
2023/12/06 10:35:02;;;;;;;15.93;10.27;;;2.90;99.90;2.80;100063.00;;;;4949389;28;92982;-70
2023/12/06 10:37:28;;;;;;;20.33;11.03;;;3.00;99.90;2.80;100063.00;;;;4950633;28;93857;-73
2023/12/06 10:40:09;;;;;;;15.83;10.40;;;3.50;99.90;2.80;100058.00;;;;4952769;28;92739;-70
2023/12/06 10:42:36;;;;;;;17.47;11.97;;;3.10;99.90;2.80;100059.00;;;;4951296;28;92284;-70
2023/12/06 10:45:03;;;;;;;18.33;11.20;;;3.00;99.90;2.90;100064.00;;;;4949427;28;92926;-70